Time;durP1;ratioP1;P1;durP2;ratioP2;P2;SDS_P1;SDS_P2;PMS_P1;PMS_P2;Temp;Humidity;BMP_temperature;BMP_pressure;BME280_temperature;BME280_humidity;BME280_pressure;Samples;Min_cycle;Max_cycle;Signal;HPM_P1;HPM_P2
2022/10/24 00:00:45;;;;;;;3.77;1.73;;;19.50;96.80;;;;;;5009857;28;20191;-55
2022/10/24 00:03:11;;;;;;;3.10;1.55;;;19.40;96.80;;;;;;5011727;28;20194;-54
2022/10/24 00:05:41;;;;;;;3.75;1.20;;;19.40;96.70;;;;;;5008981;28;20203;-55
2022/10/24 00:08:07;;;;;;;3.45;1.60;;;19.40;96.90;;;;;;5004953;28;20195;-55
2022/10/24 00:10:35;;;;;;;6.35;1.60;;;19.30;96.80;;;;;;5015094;28;20187;-55
2022/10/24 00:13:00;;;;;;;4.80;1.90;;;19.30;96.90;;;;;;5007154;28;20310;-54
2022/10/24 00:15:26;;;;;;;2.17;1.43;;;19.30;97.10;;;;;;5011415;28;20286;-55
2022/10/24 00:17:52;;;;;;;4.80;1.73;;;19.20;97.50;;;;;;5009700;28;20260;-55
2022/10/24 00:20:17;;;;;;;3.30;1.40;;;19.10;97.80;;;;;;5005312;28;20179;-55
2022/10/24 00:22:43;;;;;;;7.77;1.97;;;19.00;97.60;;;;;;5005710;28;20187;-55
2022/10/24 00:25:09;;;;;;;2.10;0.93;;;19.00;97.80;;;;;;5010306;28;20213;-55
2022/10/24 00:27:35;;;;;;;2.00;1.40;;;19.00;97.90;;;;;;5009311;28;20838;-55
2022/10/24 00:30:02;;;;;;;4.43;1.80;;;18.90;98.10;;;;;;5010782;28;20233;-55
2022/10/24 00:32:28;;;;;;;3.83;1.30;;;18.90;98.40;;;;;;5008412;28;20194;-55
2022/10/24 00:34:54;;;;;;;3.90;1.30;;;18.80;98.80;;;;;;5010878;28;20710;-55
2022/10/24 00:37:20;;;;;;;3.17;1.87;;;18.80;98.60;;;;;;5008729;28;20257;-55
2022/10/24 00:39:45;;;;;;;6.20;1.53;;;18.70;98.70;;;;;;5010117;28;20179;-55
2022/10/24 00:42:12;;;;;;;3.90;1.50;;;18.90;99.00;;;;;;5009993;28;20422;-56
2022/10/24 00:44:41;;;;;;;4.40;1.20;;;18.50;98.90;;;;;;5011774;28;20214;-55
2022/10/24 00:47:22;;;;;;;4.00;1.35;;;18.60;99.20;;;;;;5014369;28;20199;-55
2022/10/24 00:49:59;;;;;;;3.42;1.80;;;18.50;99.30;;;;;;5017093;28;20559;-55
2022/10/24 00:52:29;;;;;;;2.60;1.63;;;18.50;99.50;;;;;;5002523;28;20281;-55
2022/10/24 00:54:58;;;;;;;9.73;1.70;;;18.30;99.90;;;;;;5012033;28;20229;-55
2022/10/24 00:57:38;;;;;;;2.90;2.03;;;18.30;99.90;;;;;;5010402;28;20194;-54
2022/10/24 01:00:08;;;;;;;5.43;1.63;;;18.20;99.90;;;;;;5009967;28;20581;-54
2022/10/24 01:02:33;;;;;;;1.90;1.50;;;18.20;99.90;;;;;;5017255;28;20186;-55
2022/10/24 01:04:59;;;;;;;4.70;1.50;;;18.10;99.90;;;;;;5016481;28;20229;-55
2022/10/24 01:08:12;;;;;;;3.63;1.40;;;18.10;99.90;;;;;;5014357;28;20219;-55
2022/10/24 01:11:08;;;;;;;2.30;1.40;;;17.90;99.90;;;;;;4989863;28;20183;-55
2022/10/24 01:13:46;;;;;;;7.63;2.88;;;18.10;99.90;;;;;;4983714;28;20215;-55
2022/10/24 01:16:22;;;;;;;3.78;1.90;;;17.90;99.90;;;;;;5010671;28;20557;-55
2022/10/24 01:19:36;;;;;;;2.42;1.50;;;18.10;99.90;;;;;;5012975;28;20186;-55
2022/10/24 01:22:11;;;;;;;4.05;1.40;;;18.00;99.90;;;;;;4997558;28;20215;-55
2022/10/24 01:24:40;;;;;;;4.93;1.65;;;17.70;99.90;;;;;;5017560;28;20198;-55
2022/10/24 01:27:08;;;;;;;3.70;1.70;;;17.80;99.90;;;;;;5011672;28;21096;-55
2022/10/24 01:29:53;;;;;;;5.25;2.00;;;17.90;99.90;;;;;;5014001;28;20261;-54
2022/10/24 01:32:49;;;;;;;1.70;1.60;;;17.80;99.90;;;;;;5013868;28;20660;-55
2022/10/24 01:35:21;;;;;;;4.60;1.30;;;17.80;99.90;;;;;;5018223;28;20218;-55
2022/10/24 01:37:57;;;;;;;4.43;2.50;;;17.80;99.90;;;;;;5010144;28;20187;-54
2022/10/24 01:40:28;;;;;;;11.18;1.88;;;17.80;99.90;;;;;;5008221;28;20286;-55
2022/10/24 01:42:59;;;;;;;4.80;1.40;;;17.80;99.90;;;;;;5009239;28;20190;-54
2022/10/24 01:45:31;;;;;;;3.83;1.52;;;17.80;99.90;;;;;;5013667;28;20627;-54
2022/10/24 01:48:00;;;;;;;4.78;1.80;;;17.80;99.90;;;;;;5012596;28;20262;-54
2022/10/24 01:50:28;;;;;;;3.63;1.90;;;17.80;99.90;;;;;;5013127;28;20226;-55
2022/10/24 01:52:56;;;;;;;7.72;1.92;;;17.90;99.90;;;;;;5007508;28;20307;-55
2022/10/24 01:55:22;;;;;;;7.50;2.13;;;17.90;99.90;;;;;;5016428;28;20286;-55
2022/10/24 01:57:48;;;;;;;7.18;2.28;;;17.80;99.90;;;;;;4994043;28;20182;-55
2022/10/24 02:00:19;;;;;;;3.60;1.77;;;17.80;99.90;;;;;;5015539;28;20195;-55
2022/10/24 02:03:16;;;;;;;5.95;1.92;;;17.80;99.90;;;;;;5015270;28;20270;-55
2022/10/24 02:05:48;;;;;;;5.80;2.03;;;17.80;99.90;;;;;;5007675;28;20269;-55
2022/10/24 02:08:18;;;;;;;4.32;1.65;;;17.80;99.90;;;;;;5014006;28;20198;-55
2022/10/24 02:10:51;;;;;;;4.72;1.55;;;17.80;99.90;;;;;;5015025;28;20210;-55
2022/10/24 02:13:54;;;;;;;3.00;1.77;;;17.80;99.90;;;;;;5009789;28;20218;-55
2022/10/24 02:16:20;;;;;;;3.25;1.45;;;17.80;99.90;;;;;;4997610;28;20580;-55
2022/10/24 02:18:52;;;;;;;13.25;2.90;;;18.00;99.90;;;;;;5012062;28;20183;-54
2022/10/24 02:21:34;;;;;;;5.13;1.88;;;17.90;99.90;;;;;;5012246;28;20182;-55
2022/10/24 02:24:02;;;;;;;3.85;1.65;;;17.80;99.90;;;;;;5010368;28;20195;-55
2022/10/24 02:26:37;;;;;;;3.78;1.40;;;17.90;99.90;;;;;;5015653;28;20198;-55
2022/10/24 02:29:09;;;;;;;3.55;1.50;;;17.90;99.90;;;;;;5008460;28;20195;-54
2022/10/24 02:31:40;;;;;;;5.53;1.90;;;17.90;99.90;;;;;;5013678;28;20187;-55
2022/10/24 02:34:08;;;;;;;5.55;1.58;;;18.00;99.90;;;;;;5015515;28;20206;-55
2022/10/24 02:36:35;;;;;;;2.60;1.35;;;18.10;99.90;;;;;;5012164;28;20249;-57
2022/10/24 02:39:04;;;;;;;3.55;1.75;;;18.00;99.90;;;;;;5012283;28;20179;-55
2022/10/24 02:41:34;;;;;;;4.00;1.88;;;18.10;99.90;;;;;;5013987;28;20190;-54
2022/10/24 02:44:02;;;;;;;3.53;1.58;;;18.10;99.90;;;;;;5013253;28;20207;-55
2022/10/24 02:46:28;;;;;;;4.28;1.80;;;18.10;99.90;;;;;;5015370;28;20191;-54
2022/10/24 02:48:58;;;;;;;7.55;2.45;;;18.30;99.90;;;;;;5016344;28;20186;-55
2022/10/24 02:51:29;;;;;;;2.92;1.70;;;18.20;99.90;;;;;;5010974;28;20286;-55
2022/10/24 02:53:56;;;;;;;6.13;2.05;;;18.50;99.90;;;;;;5010003;28;20672;-55
2022/10/24 02:56:22;;;;;;;3.40;1.50;;;18.20;99.90;;;;;;5012098;28;20252;-55
2022/10/24 02:58:48;;;;;;;5.30;1.87;;;18.10;99.90;;;;;;5008550;28;20648;-55
2022/10/24 03:01:13;;;;;;;4.77;2.30;;;18.50;99.90;;;;;;5012951;28;20278;-54
2022/10/24 03:03:39;;;;;;;5.47;1.90;;;18.00;99.90;;;;;;5013085;28;20808;-55
2022/10/24 03:06:05;;;;;;;5.73;2.57;;;18.00;99.90;;;;;;5009540;28;20187;-55
2022/10/24 03:08:30;;;;;;;2.43;1.70;;;18.10;99.90;;;;;;5008891;28;20534;-55
2022/10/24 03:10:56;;;;;;;3.97;2.00;;;18.00;99.90;;;;;;5013632;28;20194;-55
2022/10/24 03:13:22;;;;;;;5.47;2.60;;;18.00;99.90;;;;;;5014632;28;20240;-54
2022/10/24 03:15:47;;;;;;;7.77;1.83;;;18.00;99.90;;;;;;5012000;28;20533;-54
2022/10/24 03:18:13;;;;;;;6.20;2.27;;;18.10;99.90;;;;;;5011688;28;20187;-55
2022/10/24 03:20:38;;;;;;;6.23;2.33;;;18.10;99.90;;;;;;5011050;28;20552;-54
2022/10/24 03:23:04;;;;;;;5.50;2.50;;;18.30;99.90;;;;;;5008941;28;20183;-53
2022/10/24 03:25:30;;;;;;;5.10;2.20;;;18.40;99.90;;;;;;5015787;28;20722;-53
2022/10/24 03:27:56;;;;;;;8.73;2.07;;;18.10;99.90;;;;;;5009060;28;20199;-52
2022/10/24 03:30:22;;;;;;;5.50;1.77;;;18.10;99.90;;;;;;5013304;28;20660;-52
2022/10/24 03:32:47;;;;;;;6.87;2.40;;;18.10;99.90;;;;;;5002109;28;20469;-52
2022/10/24 03:35:13;;;;;;;7.20;2.50;;;18.10;99.90;;;;;;5012237;28;20560;-55
2022/10/24 03:37:38;;;;;;;10.37;2.57;;;18.20;99.90;;;;;;5017280;28;20187;-53
2022/10/24 03:40:06;;;;;;;5.87;2.27;;;18.20;99.90;;;;;;5014715;28;20640;-53
2022/10/24 03:42:32;;;;;;;8.88;3.45;;;18.20;99.90;;;;;;5008082;28;20329;-53
2022/10/24 03:44:57;;;;;;;7.43;2.63;;;18.20;99.90;;;;;;5012627;28;20286;-52
2022/10/24 03:47:23;;;;;;;7.93;2.63;;;18.20;99.90;;;;;;5008089;28;20233;-53
2022/10/24 03:49:49;;;;;;;6.17;2.40;;;18.20;99.90;;;;;;5011230;28;20183;-53
2022/10/24 03:52:14;;;;;;;8.93;2.67;;;18.10;99.90;;;;;;5010729;28;20219;-54
2022/10/24 03:54:40;;;;;;;7.67;2.60;;;17.90;99.90;;;;;;5017710;28;20317;-54
2022/10/24 03:57:08;;;;;;;11.40;2.63;;;17.80;99.90;;;;;;5011312;28;20214;-53
2022/10/24 03:59:34;;;;;;;3.53;2.05;;;17.90;99.90;;;;;;5006330;28;20610;-54
2022/10/24 04:02:00;;;;;;;6.32;3.22;;;18.00;99.90;;;;;;5011240;28;20183;-53
2022/10/24 04:04:26;;;;;;;11.70;2.73;;;18.00;99.90;;;;;;5010785;28;20229;-53
2022/10/24 04:06:52;;;;;;;8.03;3.23;;;18.00;99.90;;;;;;5004998;28;20457;-53
2022/10/24 04:09:17;;;;;;;7.00;3.17;;;17.90;99.90;;;;;;5011971;28;20256;-54
2022/10/24 04:11:43;;;;;;;5.80;2.57;;;17.90;99.90;;;;;;4996334;28;20194;-54
2022/10/24 04:14:09;;;;;;;8.53;3.13;;;17.90;99.90;;;;;;5007526;28;20207;-53
2022/10/24 04:16:34;;;;;;;8.97;2.87;;;17.80;99.90;;;;;;5013068;28;20193;-53
2022/10/24 04:19:00;;;;;;;9.23;3.97;;;17.90;99.90;;;;;;5005886;28;20183;-54
2022/10/24 04:21:26;;;;;;;6.13;3.00;;;17.80;99.90;;;;;;5013546;28;20203;-53
2022/10/24 04:23:52;;;;;;;5.97;2.83;;;17.80;99.90;;;;;;5004230;28;20951;-53
2022/10/24 04:26:18;;;;;;;8.93;3.50;;;17.80;99.90;;;;;;5012494;28;20543;-53
2022/10/24 04:28:45;;;;;;;9.70;3.30;;;17.80;99.90;;;;;;5008853;28;20226;-53
2022/10/24 04:31:11;;;;;;;4.90;2.25;;;17.80;99.90;;;;;;5010811;28;20790;-53
2022/10/24 04:33:37;;;;;;;5.22;2.80;;;17.80;99.90;;;;;;5004949;28;20206;-53
2022/10/24 04:36:03;;;;;;;6.00;2.40;;;17.70;99.90;;;;;;5016892;28;20748;-56
2022/10/24 04:38:29;;;;;;;6.30;2.60;;;17.90;99.90;;;;;;5010366;28;20464;-54
2022/10/24 04:40:56;;;;;;;5.17;2.43;;;17.70;99.90;;;;;;5007263;28;20650;-54
2022/10/24 04:43:22;;;;;;;8.15;2.67;;;17.80;99.90;;;;;;5009363;28;20453;-54
2022/10/24 04:45:48;;;;;;;8.43;2.90;;;17.70;99.90;;;;;;5015882;28;20210;-53
2022/10/24 04:48:14;;;;;;;7.03;3.00;;;17.70;99.90;;;;;;5013517;28;20321;-54
2022/10/24 04:50:42;;;;;;;7.13;2.40;;;17.80;99.90;;;;;;5013717;28;20197;-54
2022/10/24 04:53:08;;;;;;;5.25;2.78;;;17.60;99.90;;;;;;5005030;28;20310;-54
2022/10/24 04:55:34;;;;;;;7.00;2.27;;;18.00;99.90;;;;;;5012863;28;20322;-54
2022/10/24 04:58:00;;;;;;;5.25;2.70;;;17.70;99.90;;;;;;5015542;28;20452;-56
2022/10/24 05:00:26;;;;;;;5.90;2.50;;;17.80;99.90;;;;;;4992621;28;20186;-58
2022/10/24 05:02:51;;;;;;;9.67;2.93;;;17.90;99.90;;;;;;5003786;28;20455;-57
2022/10/24 05:05:17;;;;;;;4.47;2.37;;;18.50;99.90;;;;;;5005677;28;20466;-55
2022/10/24 05:07:44;;;;;;;8.77;5.17;;;17.90;99.90;;;;;;5008158;28;20277;-56
2022/10/24 05:10:11;;;;;;;4.00;2.20;;;17.90;99.90;;;;;;5003672;28;20191;-54
2022/10/24 05:12:37;;;;;;;7.15;2.75;;;17.90;99.90;;;;;;5006878;28;20183;-54
2022/10/24 05:15:05;;;;;;;5.30;2.70;;;18.10;99.90;;;;;;5007765;28;20252;-56
2022/10/24 05:17:30;;;;;;;7.15;3.58;;;17.90;99.90;;;;;;5009187;28;20565;-56
2022/10/24 05:19:56;;;;;;;7.10;2.50;;;17.80;99.90;;;;;;5003052;28;20191;-59
2022/10/24 05:22:22;;;;;;;6.43;2.40;;;17.90;99.90;;;;;;5011316;28;20187;-60
2022/10/24 05:24:48;;;;;;;6.60;2.67;;;18.00;99.90;;;;;;5002197;28;20215;-56
2022/10/24 05:27:15;;;;;;;4.10;2.25;;;18.00;99.90;;;;;;5007368;28;20230;-57
2022/10/24 05:29:41;;;;;;;3.28;1.83;;;18.20;99.90;;;;;;5005021;28;20214;-56
2022/10/24 05:32:06;;;;;;;6.27;2.13;;;18.10;99.90;;;;;;5007211;28;20598;-57
2022/10/24 05:34:32;;;;;;;6.27;2.80;;;18.30;99.90;;;;;;5006153;28;20601;-59
2022/10/24 05:36:58;;;;;;;7.43;3.10;;;18.30;99.90;;;;;;5004957;28;20189;-57
2022/10/24 05:39:23;;;;;;;6.80;3.00;;;18.30;99.90;;;;;;4992893;28;20210;-58
2022/10/24 05:41:49;;;;;;;3.97;2.10;;;18.30;99.90;;;;;;5014495;28;20193;-58
2022/10/24 05:44:14;;;;;;;4.40;2.70;;;18.40;99.90;;;;;;5012106;28;20261;-62
2022/10/24 05:46:40;;;;;;;7.67;2.60;;;18.40;99.90;;;;;;5012488;28;20860;-62
2022/10/24 05:49:06;;;;;;;7.50;2.43;;;18.30;99.90;;;;;;5008258;28;20237;-60
2022/10/24 05:51:32;;;;;;;4.13;1.88;;;18.30;99.90;;;;;;5017713;28;20261;-61
2022/10/24 05:53:58;;;;;;;3.60;2.40;;;18.40;99.90;;;;;;4992055;28;20214;-59
2022/10/24 05:56:25;;;;;;;6.70;2.40;;;18.40;99.90;;;;;;5010793;28;21136;-58
2022/10/24 05:58:50;;;;;;;6.00;3.15;;;18.60;99.90;;;;;;5010805;28;20827;-58
2022/10/24 06:01:16;;;;;;;7.20;2.67;;;18.60;99.90;;;;;;4997456;28;20175;-58
2022/10/24 06:03:43;;;;;;;5.03;3.07;;;18.40;99.90;;;;;;5012967;28;20224;-56
2022/10/24 06:06:09;;;;;;;7.53;3.03;;;18.50;99.90;;;;;;5008243;28;20210;-56
2022/10/24 06:08:37;;;;;;;14.03;4.30;;;18.40;99.90;;;;;;5014263;28;20221;-55
2022/10/24 06:11:03;;;;;;;8.07;2.72;;;18.50;99.90;;;;;;5011182;28;20469;-57
2022/10/24 06:13:29;;;;;;;8.60;3.57;;;17.70;99.90;;;;;;5009028;28;20637;-55
2022/10/24 06:15:55;;;;;;;4.68;2.53;;;17.70;99.90;;;;;;5012673;28;20446;-56
2022/10/24 06:18:21;;;;;;;12.60;2.77;;;17.40;99.90;;;;;;5011942;28;20248;-55
2022/10/24 06:20:47;;;;;;;6.30;3.60;;;17.20;99.90;;;;;;5010375;28;20234;-56
2022/10/24 06:23:13;;;;;;;7.13;3.70;;;17.20;99.90;;;;;;5006715;28;20205;-56
2022/10/24 06:25:40;;;;;;;9.18;3.30;;;17.20;99.90;;;;;;5007578;28;20210;-56
2022/10/24 06:28:06;;;;;;;3.20;2.08;;;17.40;99.90;;;;;;5004389;28;20237;-55
2022/10/24 06:30:33;;;;;;;5.40;3.42;;;17.10;99.90;;;;;;5003745;28;20323;-56
2022/10/24 06:33:00;;;;;;;3.78;2.25;;;17.30;99.90;;;;;;5007024;28;20289;-56
2022/10/24 06:35:25;;;;;;;5.28;2.15;;;17.10;99.90;;;;;;5008945;28;20906;-56
2022/10/24 06:37:52;;;;;;;6.77;2.73;;;17.10;99.90;;;;;;5011645;28;20306;-56
2022/10/24 06:40:17;;;;;;;5.43;2.90;;;17.20;99.90;;;;;;5011170;28;20198;-56
2022/10/24 06:42:43;;;;;;;7.83;3.37;;;17.90;99.90;;;;;;4999623;28;21075;-57
2022/10/24 06:45:10;;;;;;;5.93;2.50;;;17.20;99.90;;;;;;5015945;28;20962;-57
2022/10/24 06:47:36;;;;;;;3.78;2.40;;;17.30;99.90;;;;;;5015080;28;20659;-57
2022/10/24 06:50:03;;;;;;;4.47;2.30;;;17.30;99.90;;;;;;5011440;28;20672;-56
2022/10/24 06:52:28;;;;;;;6.13;2.33;;;17.00;99.90;;;;;;5006429;28;20707;-57
2022/10/24 06:54:54;;;;;;;3.97;2.40;;;17.30;99.90;;;;;;5013302;28;20249;-57
2022/10/24 06:57:20;;;;;;;7.73;2.93;;;17.20;99.90;;;;;;5009611;28;20201;-53
2022/10/24 06:59:46;;;;;;;4.40;3.00;;;17.30;99.90;;;;;;5007812;28;20449;-57
2022/10/24 07:02:13;;;;;;;6.00;3.40;;;17.10;99.90;;;;;;5006362;28;20435;-56
2022/10/24 07:04:39;;;;;;;4.20;3.42;;;17.00;99.90;;;;;;5011134;28;20703;-55
2022/10/24 07:07:05;;;;;;;7.47;3.70;;;17.00;99.90;;;;;;5011077;28;20260;-57
2022/10/24 07:09:30;;;;;;;7.93;3.80;;;16.90;99.90;;;;;;4987249;28;20584;-56
2022/10/24 07:11:56;;;;;;;5.30;2.80;;;16.90;99.90;;;;;;5010161;28;20532;-56
2022/10/24 07:14:24;;;;;;;3.50;2.70;;;16.70;99.90;;;;;;4996332;28;20218;-59
2022/10/24 07:16:51;;;;;;;5.97;2.38;;;16.70;99.90;;;;;;5004643;28;21143;-53
2022/10/24 07:19:17;;;;;;;5.53;2.80;;;16.60;99.90;;;;;;5008603;28;20189;-56
2022/10/24 07:21:42;;;;;;;6.73;2.87;;;16.50;99.90;;;;;;5012604;28;20201;-57
2022/10/24 07:24:11;;;;;;;4.07;2.60;;;16.30;99.90;;;;;;5004332;28;20472;-56
2022/10/24 07:26:38;;;;;;;5.75;2.88;;;16.40;99.90;;;;;;5008239;28;20282;-56
2022/10/24 07:29:03;;;;;;;5.97;3.10;;;16.60;99.90;;;;;;5009305;28;20193;-56
2022/10/24 07:31:31;;;;;;;7.30;2.90;;;17.00;99.90;;;;;;5014953;28;20622;-56
2022/10/24 07:33:58;;;;;;;11.10;4.38;;;16.90;99.90;;;;;;4999373;28;20207;-55
2022/10/24 07:36:25;;;;;;;6.70;3.45;;;16.90;99.90;;;;;;5009097;28;20728;-58
2022/10/24 07:38:53;;;;;;;5.00;3.60;;;16.70;99.90;;;;;;5010080;28;20227;-59
2022/10/24 07:41:19;;;;;;;6.15;3.60;;;16.80;99.90;;;;;;5013244;28;20186;-57
2022/10/24 07:43:45;;;;;;;7.50;3.67;;;16.80;99.90;;;;;;4997698;28;20217;-57
2022/10/24 07:46:13;;;;;;;7.00;3.20;;;16.90;99.90;;;;;;4996040;28;20183;-58
2022/10/24 07:48:41;;;;;;;6.88;3.28;;;17.00;99.90;;;;;;5008132;28;20974;-57
2022/10/24 07:51:08;;;;;;;6.03;2.80;;;16.70;99.90;;;;;;5006525;28;20187;-56
2022/10/24 07:53:34;;;;;;;3.70;2.67;;;16.90;99.90;;;;;;5014616;28;20241;-56
2022/10/24 07:56:01;;;;;;;5.97;2.63;;;17.00;99.90;;;;;;5009346;28;20179;-56
2022/10/24 07:58:28;;;;;;;5.68;3.00;;;17.20;99.90;;;;;;5008145;28;20671;-54
2022/10/24 08:00:54;;;;;;;4.00;3.20;;;17.10;99.90;;;;;;5007418;28;20217;-59
2022/10/24 08:03:19;;;;;;;5.40;2.70;;;17.20;99.90;;;;;;5011182;28;20218;-56
2022/10/24 08:05:46;;;;;;;5.20;2.93;;;17.10;99.90;;;;;;5011725;28;20461;-58
2022/10/24 08:08:11;;;;;;;5.10;2.15;;;17.10;99.90;;;;;;5009382;28;20191;-58
2022/10/24 08:10:37;;;;;;;3.90;2.10;;;17.00;99.90;;;;;;5020420;28;20194;-58
2022/10/24 08:13:03;;;;;;;4.35;2.45;;;17.10;99.90;;;;;;5009172;28;20297;-55
2022/10/24 08:15:29;;;;;;;2.70;1.67;;;17.20;99.90;;;;;;5017093;28;20301;-55
2022/10/24 08:17:55;;;;;;;9.63;2.60;;;17.10;99.90;;;;;;5010610;28;20187;-55
2022/10/24 08:20:23;;;;;;;3.95;1.90;;;17.10;99.90;;;;;;5010763;28;20276;-54
2022/10/24 08:22:49;;;;;;;3.80;2.00;;;17.00;99.90;;;;;;4993058;28;20205;-53
2022/10/24 08:25:15;;;;;;;4.13;2.10;;;17.00;99.90;;;;;;4991024;28;20202;-54
2022/10/24 08:27:41;;;;;;;3.63;2.20;;;17.20;99.90;;;;;;5009234;28;20182;-54
2022/10/24 08:30:07;;;;;;;5.00;2.20;;;16.90;99.90;;;;;;5013492;28;20183;-55
2022/10/24 08:32:34;;;;;;;3.17;2.30;;;17.40;99.90;;;;;;5011692;28;20703;-54
2022/10/24 08:34:59;;;;;;;3.20;2.05;;;17.10;99.90;;;;;;5006590;28;20211;-54
2022/10/24 08:37:25;;;;;;;5.13;2.23;;;17.40;99.90;;;;;;5009072;28;20725;-54
2022/10/24 08:39:54;;;;;;;2.57;2.00;;;17.20;99.90;;;;;;4995677;28;20186;-54
2022/10/24 08:42:23;;;;;;;5.63;2.42;;;17.20;99.90;;;;;;5008022;28;20216;-55
2022/10/24 08:44:49;;;;;;;3.38;1.85;;;17.20;99.90;;;;;;5012312;28;20202;-55
2022/10/24 08:47:37;;;;;;;3.42;2.40;;;17.10;99.90;;;;;;5009521;28;20656;-54
2022/10/24 08:50:12;;;;;;;5.95;3.55;;;17.20;99.90;;;;;;5007049;28;20289;-54
2022/10/24 08:52:47;;;;;;;6.95;2.40;;;17.50;99.90;;;;;;5004007;28;20666;-54
2022/10/24 08:55:29;;;;;;;3.00;2.60;;;17.40;99.90;;;;;;5006777;28;20793;-54
2022/10/24 08:57:58;;;;;;;4.97;2.50;;;17.60;99.90;;;;;;5011686;28;20273;-54
2022/10/24 09:00:39;;;;;;;4.40;2.30;;;17.30;99.90;;;;;;5004507;28;20191;-54
2022/10/24 09:03:20;;;;;;;6.18;2.85;;;17.40;99.90;;;;;;5008944;28;20190;-55
2022/10/24 09:06:10;;;;;;;2.55;2.00;;;17.40;99.90;;;;;;5007304;28;20228;-55
2022/10/24 09:08:53;;;;;;;6.38;2.90;;;17.40;99.90;;;;;;5005841;28;20183;-56
2022/10/24 09:11:53;;;;;;;3.28;2.03;;;17.50;99.90;;;;;;4990232;28;20230;-56
2022/10/24 09:14:40;;;;;;;3.28;2.35;;;17.30;99.90;;;;;;5001832;28;20614;-54
2022/10/24 09:17:20;;;;;;;4.50;2.25;;;17.50;99.90;;;;;;5007066;28;20188;-54
2022/10/24 09:20:27;;;;;;;5.75;2.17;;;17.40;99.90;;;;;;5016127;28;20640;-55
2022/10/24 09:22:57;;;;;;;9.20;3.50;;;17.40;99.90;;;;;;4974058;28;20209;-53
2022/10/24 09:25:31;;;;;;;4.43;2.10;;;17.50;99.90;;;;;;4983784;28;20655;-54
2022/10/24 09:27:57;;;;;;;5.30;3.42;;;17.40;99.90;;;;;;5010407;28;20191;-53
2022/10/24 09:30:26;;;;;;;3.88;2.42;;;17.70;99.90;;;;;;4997172;28;20210;-54
2022/10/24 09:32:54;;;;;;;5.43;2.30;;;17.40;99.90;;;;;;5009979;28;20184;-57
2022/10/24 09:35:29;;;;;;;7.28;2.80;;;17.40;99.90;;;;;;5015735;28;20310;-57
2022/10/24 09:37:57;;;;;;;4.88;2.60;;;17.50;99.90;;;;;;5015914;28;20186;-57
2022/10/24 09:40:33;;;;;;;6.88;2.20;;;17.60;99.90;;;;;;5009744;28;20806;-55
2022/10/24 09:43:01;;;;;;;3.38;2.20;;;17.50;99.90;;;;;;5008622;28;20182;-55
2022/10/24 09:45:29;;;;;;;7.80;2.28;;;17.50;99.90;;;;;;5019229;28;21005;-55
2022/10/24 09:48:02;;;;;;;4.22;2.55;;;17.50;99.90;;;;;;5015794;28;20700;-55
2022/10/24 09:50:31;;;;;;;5.60;3.00;;;17.70;99.90;;;;;;5018669;28;20190;-55
2022/10/24 09:52:58;;;;;;;7.97;3.22;;;17.70;99.90;;;;;;5011203;28;20195;-55
2022/10/24 09:55:27;;;;;;;4.65;2.25;;;17.50;99.90;;;;;;5011944;28;20264;-56
2022/10/24 09:58:02;;;;;;;5.10;2.50;;;17.70;99.90;;;;;;5009212;28;20611;-56
2022/10/24 10:00:34;;;;;;;5.35;2.72;;;17.80;99.90;;;;;;5010056;28;20206;-55
2022/10/24 10:03:05;;;;;;;7.25;2.97;;;17.60;99.90;;;;;;5006020;28;20194;-55
2022/10/24 10:05:49;;;;;;;3.92;2.15;;;17.60;99.90;;;;;;5009686;28;20572;-56
2022/10/24 10:08:24;;;;;;;6.85;2.25;;;17.70;99.90;;;;;;5008496;28;20179;-56
2022/10/24 10:11:09;;;;;;;5.28;3.30;;;17.70;99.90;;;;;;5008222;28;20195;-55
2022/10/24 10:13:52;;;;;;;5.25;2.40;;;17.90;99.90;;;;;;5006131;28;20210;-56
2022/10/24 10:16:25;;;;;;;8.48;3.60;;;17.90;99.90;;;;;;5010844;28;20183;-56
2022/10/24 10:19:02;;;;;;;7.45;2.13;;;17.80;99.90;;;;;;5010649;28;20186;-57
2022/10/24 10:22:07;;;;;;;8.30;3.13;;;17.70;99.90;;;;;;5009831;28;20277;-57
2022/10/24 10:24:52;;;;;;;3.75;1.90;;;18.00;99.90;;;;;;4999359;28;20562;-54
2022/10/24 10:27:29;;;;;;;8.13;2.33;;;18.00;99.90;;;;;;5007057;28;20217;-54
2022/10/24 10:30:16;;;;;;;2.22;2.00;;;18.10;99.90;;;;;;5010056;28;20183;-54
2022/10/24 10:33:07;;;;;;;3.30;1.90;;;18.10;99.90;;;;;;5009926;28;20199;-54
2022/10/24 10:35:39;;;;;;;4.68;1.77;;;18.20;99.90;;;;;;5007014;28;20265;-54
2022/10/24 10:38:36;;;;;;;2.85;1.92;;;18.20;99.90;;;;;;5008233;28;20183;-54
2022/10/24 10:41:07;;;;;;;5.30;1.95;;;18.20;99.90;;;;;;5004037;28;20187;-53
2022/10/24 10:43:40;;;;;;;3.70;2.03;;;18.20;99.90;;;;;;5001893;28;20582;-55
2022/10/24 10:46:10;;;;;;;5.35;1.73;;;18.30;99.90;;;;;;5009893;28;20210;-55
2022/10/24 10:48:46;;;;;;;5.63;1.52;;;18.30;99.90;;;;;;5014953;28;20385;-54
2022/10/24 10:51:31;;;;;;;2.50;1.63;;;18.30;99.90;;;;;;5013933;28;20178;-54
2022/10/24 10:53:59;;;;;;;3.75;1.77;;;18.30;99.90;;;;;;5011139;28;20687;-55
2022/10/24 10:56:47;;;;;;;5.15;1.50;;;18.30;99.90;;;;;;5013868;28;20546;-54
2022/10/24 10:59:21;;;;;;;5.50;1.98;;;18.30;99.90;;;;;;5006837;28;20183;-54
2022/10/24 11:02:40;;;;;;;3.97;1.92;;;18.30;99.90;;;;;;5008311;28;20264;-56
2022/10/24 11:05:43;;;;;;;3.28;1.48;;;18.30;99.90;;;;;;4999635;28;20264;-57
2022/10/24 11:08:39;;;;;;;3.63;2.28;;;18.20;99.90;;;;;;5008140;28;20262;-57
2022/10/24 11:11:21;;;;;;;2.35;1.70;;;18.20;99.90;;;;;;5009377;28;20190;-56
2022/10/24 11:13:55;;;;;;;2.47;1.40;;;18.20;99.90;;;;;;5006100;28;20780;-56
2022/10/24 11:16:25;;;;;;;6.40;1.85;;;18.20;99.90;;;;;;5022961;28;20194;-57
2022/10/24 11:18:54;;;;;;;3.10;1.42;;;18.30;99.90;;;;;;5018734;28;20191;-57
2022/10/24 11:21:23;;;;;;;3.83;1.60;;;18.80;99.90;;;;;;5013754;28;20794;-57
2022/10/24 11:24:09;;;;;;;2.80;1.33;;;18.30;99.90;;;;;;5008121;28;20199;-56
2022/10/24 11:27:02;;;;;;;4.53;1.45;;;18.30;99.90;;;;;;5010738;28;20191;-56
2022/10/24 11:29:40;;;;;;;5.43;1.50;;;18.20;99.90;;;;;;5009551;28;20195;-57
2022/10/24 11:32:18;;;;;;;3.78;1.60;;;18.30;99.90;;;;;;5016915;28;20706;-56
2022/10/24 11:35:16;;;;;;;1.63;1.20;;;18.30;99.90;;;;;;5003302;28;20253;-57
2022/10/24 11:37:46;;;;;;;2.13;1.55;;;18.30;99.90;;;;;;5003319;28;20191;-57
2022/10/24 11:40:20;;;;;;;2.38;1.25;;;18.40;99.90;;;;;;5007355;28;20261;-56
2022/10/24 11:42:57;;;;;;;1.85;1.30;;;18.20;99.90;;;;;;5003504;28;20699;-57
2022/10/24 11:45:32;;;;;;;2.40;1.15;;;18.50;99.90;;;;;;5014128;28;20237;-56
2022/10/24 11:48:02;;;;;;;2.35;1.40;;;18.30;99.90;;;;;;5014387;28;20192;-56
2022/10/24 11:50:48;;;;;;;3.75;1.27;;;18.70;99.90;;;;;;5010199;28;20195;-52
2022/10/24 11:53:21;;;;;;;5.90;1.13;;;18.40;99.90;;;;;;5007434;28;20217;-51
2022/10/24 11:55:53;;;;;;;2.08;1.10;;;18.40;99.90;;;;;;5009626;28;20203;-53
2022/10/24 11:58:22;;;;;;;3.45;1.55;;;18.50;99.90;;;;;;4995993;28;20182;-52
2022/10/24 12:00:53;;;;;;;4.15;1.63;;;18.60;99.90;;;;;;5009736;28;20210;-53
2022/10/24 12:03:24;;;;;;;3.13;1.63;;;18.60;99.90;;;;;;5008113;28;20560;-51
2022/10/24 12:06:08;;;;;;;2.17;1.10;;;18.60;99.90;;;;;;5008300;28;20246;-51
2022/10/24 12:08:40;;;;;;;3.97;1.52;;;18.60;99.90;;;;;;4995021;28;20210;-50
2022/10/24 12:11:25;;;;;;;1.38;1.27;;;18.60;99.90;;;;;;5008179;28;20186;-51
2022/10/24 12:13:57;;;;;;;2.92;1.40;;;18.60;99.90;;;;;;5003379;28;20773;-52
2022/10/24 12:16:45;;;;;;;1.50;1.13;;;18.60;99.90;;;;;;5005917;28;20209;-57
2022/10/24 12:19:14;;;;;;;6.07;1.90;;;18.60;99.90;;;;;;5003236;28;20237;-57
2022/10/24 12:21:46;;;;;;;3.17;1.60;;;18.60;99.90;;;;;;5010266;28;20673;-55
2022/10/24 12:24:31;;;;;;;2.92;1.65;;;18.60;99.90;;;;;;5004497;28;20240;-55
2022/10/24 12:27:06;;;;;;;1.27;1.10;;;18.60;99.90;;;;;;5007128;28;20205;-54
2022/10/24 12:29:35;;;;;;;2.13;1.42;;;18.70;99.90;;;;;;5004949;28;20202;-54
2022/10/24 12:32:39;;;;;;;2.75;1.25;;;18.60;99.90;;;;;;5010698;28;20548;-53
2022/10/24 12:35:32;;;;;;;3.00;1.45;;;18.70;99.90;;;;;;5014585;28;20245;-53
2022/10/24 12:37:59;;;;;;;1.70;1.00;;;18.70;99.90;;;;;;5009519;28;20182;-53
2022/10/24 12:40:44;;;;;;;2.65;1.00;;;18.80;99.90;;;;;;5007656;28;20571;-54
2022/10/24 12:43:33;;;;;;;2.92;2.08;;;18.80;99.90;;;;;;5014896;28;20576;-53
2022/10/24 12:46:24;;;;;;;1.45;1.20;;;18.80;99.90;;;;;;5004187;28;20195;-56
2022/10/24 12:48:55;;;;;;;1.83;1.02;;;18.80;99.90;;;;;;5006868;28;20198;-58
2022/10/24 12:51:29;;;;;;;2.75;1.98;;;18.70;99.90;;;;;;5002396;28;20191;-58
2022/10/24 12:54:10;;;;;;;2.38;1.30;;;18.70;99.90;;;;;;5007038;28;20206;-57
2022/10/24 12:56:48;;;;;;;1.40;0.90;;;18.70;99.90;;;;;;5013623;28;20722;-56
2022/10/24 12:59:19;;;;;;;1.40;1.02;;;18.70;99.90;;;;;;5006648;28;20756;-57
2022/10/24 13:01:46;;;;;;;1.20;1.05;;;18.60;99.90;;;;;;5007538;28;20183;-56
2022/10/24 13:04:35;;;;;;;1.80;0.85;;;18.70;99.90;;;;;;5010333;28;20289;-57
2022/10/24 13:07:25;;;;;;;1.40;1.15;;;18.70;99.90;;;;;;4971897;28;20214;-56